Main page
METAR-TAF:

METAR-TAF

Airports :

Portorož, Slovenia

Portorož Airport

latitude: 45-31N, longitude: 013-34E, elevation: 95 m

Current weather observation

The report was made 13 minutes ago, at 20:30 UTC
Wind 5 kt from the East/Southeast
Temperature 22°C
Humidity 83%
Pressure 1008 hPa
Visibility 10 km or more

METAR: LJPZ 272030Z AUTO 12005KT 9999 NSC 22/19 Q1008

Time: 22:43 (20:43 UTC)

Forecast

The report was made 43 minutes ago, at 20:00 UTC
Forecast valid from 27 at 21 UTC to 28 at 06 UTC
Wind 5 kt from the Southeast
Visibility 10 km or more
no clouds below 1500 m and no cumulonimbus

TAF: LJPZ 272000Z 2721/2806 13005KT CAVOK

Weather observations and forecasts of more than 4000 airports (METAR and TAF reports).

The available stations are represented by yellow and red dots on the map.

Hover mouse over dot to see the name of the station.

Then click to see weather observations and forecasts.

To change the map : click on the green buttons with a black cross to zoom in, on the green button with a dash to zoom out, or on the green arrows for adjacent maps.


METAR-TAF: